createdAt,value
2018-12-13T00:01:06.574Z,-0.50
2018-12-13T00:03:34.941Z,-0.50
2018-12-13T00:06:03.380Z,-0.50
2018-12-13T00:08:31.760Z,-0.50
2018-12-13T00:11:00.090Z,-0.50
2018-12-13T00:13:28.447Z,-0.50
2018-12-13T00:15:56.886Z,-0.50
2018-12-13T00:18:25.278Z,-0.50
2018-12-13T00:20:53.606Z,-0.50
2018-12-13T00:23:21.968Z,-0.50
2018-12-13T00:25:50.297Z,-0.50
2018-12-13T00:28:18.697Z,-0.50
2018-12-13T00:30:47.131Z,-0.50
2018-12-13T00:33:15.479Z,-0.50
2018-12-13T00:35:43.875Z,-0.50
2018-12-13T00:38:12.237Z,-0.50
2018-12-13T00:40:40.558Z,-0.60
2018-12-13T00:43:08.915Z,-0.60
2018-12-13T00:45:37.345Z,-0.60
2018-12-13T00:48:05.739Z,-0.50
2018-12-13T00:50:34.086Z,-0.60
2018-12-13T00:53:02.449Z,-0.60
2018-12-13T00:55:30.826Z,-0.50
2018-12-13T00:57:59.317Z,-0.50
2018-12-13T01:00:27.643Z,-0.50
2018-12-13T01:02:56.018Z,-0.50
2018-12-13T01:05:24.490Z,-0.50
2018-12-13T01:07:52.958Z,-0.50
2018-12-13T01:10:21.294Z,-0.60
2018-12-13T01:12:49.671Z,-0.60
2018-12-13T01:15:18.031Z,-0.60
2018-12-13T01:17:46.405Z,-0.60
2018-12-13T01:20:14.745Z,-0.60
2018-12-13T01:22:43.122Z,-0.60
2018-12-13T01:25:11.469Z,-0.60
2018-12-13T01:27:39.845Z,-0.60
2018-12-13T01:30:08.298Z,-0.70
2018-12-13T01:32:36.665Z,-0.70
2018-12-13T01:35:05.325Z,-0.70
2018-12-13T01:37:33.798Z,-0.70
2018-12-13T01:40:02.238Z,-0.70
2018-12-13T01:42:30.606Z,-0.70
2018-12-13T01:44:58.922Z,-0.70
2018-12-13T01:47:27.271Z,-0.70
2018-12-13T01:49:55.605Z,-0.70
2018-12-13T01:52:23.962Z,-0.70
2018-12-13T01:54:52.299Z,-0.70
2018-12-13T01:57:21.395Z,-0.70
2018-12-13T01:59:49.746Z,-0.70
2018-12-13T02:02:18.110Z,-0.70
2018-12-13T02:04:46.447Z,-0.70
2018-12-13T02:07:14.780Z,-0.70
2018-12-13T02:09:43.135Z,-0.70
2018-12-13T02:12:11.470Z,-0.70
2018-12-13T02:14:39.948Z,-0.70
2018-12-13T02:17:08.277Z,-0.70
2018-12-13T02:19:36.637Z,-0.70
2018-12-13T02:22:05.128Z,-0.70
2018-12-13T02:24:33.466Z,-0.70
2018-12-13T02:27:01.833Z,-0.70
2018-12-13T02:29:30.157Z,-0.70
2018-12-13T02:31:58.511Z,-0.70
2018-12-13T02:34:26.829Z,-0.70
2018-12-13T02:37:06.312Z,-0.70
2018-12-13T02:39:41.792Z,-0.70
2018-12-13T02:42:10.483Z,-0.70
2018-12-13T02:44:38.815Z,-0.70
2018-12-13T02:47:07.194Z,-0.80
2018-12-13T02:49:35.547Z,-0.80
2018-12-13T02:52:03.915Z,-0.80
2018-12-13T02:54:32.241Z,-0.80
2018-12-13T02:57:00.698Z,-0.70
2018-12-13T02:59:29.019Z,-0.70
2018-12-13T03:01:57.512Z,-0.80
2018-12-13T03:04:25.823Z,-0.80
2018-12-13T03:06:54.283Z,-0.80
2018-12-13T03:09:22.630Z,-0.80
2018-12-13T03:11:50.943Z,-0.80
2018-12-13T03:14:19.291Z,-0.80
2018-12-13T03:16:47.650Z,-0.80
2018-12-13T03:19:15.998Z,-0.80
2018-12-13T03:21:44.421Z,-0.80
2018-12-13T03:24:12.774Z,-0.80
2018-12-13T03:26:41.111Z,-0.80
2018-12-13T03:29:09.466Z,-0.80
2018-12-13T03:31:37.791Z,-0.80
2018-12-13T03:34:06.275Z,-0.90
2018-12-13T03:36:34.591Z,-0.90
2018-12-13T03:41:28.977Z,-0.90
2018-12-13T03:43:57.334Z,-0.80
2018-12-13T03:46:25.664Z,-0.90
2018-12-13T03:48:54.054Z,-0.90
2018-12-13T03:51:22.379Z,-0.90
2018-12-13T03:53:50.727Z,-0.90
2018-12-13T03:56:19.047Z,-1.00
2018-12-13T03:58:47.408Z,-1.00
2018-12-13T04:01:15.733Z,-1.00
2018-12-13T04:03:44.196Z,-1.00
2018-12-13T04:06:12.559Z,-1.00
2018-12-13T04:08:40.909Z,-1.00
2018-12-13T04:11:09.230Z,-1.00
2018-12-13T04:13:37.582Z,-1.00
2018-12-13T04:16:05.925Z,-1.10
2018-12-13T04:18:34.247Z,-1.10
2018-12-13T04:21:02.586Z,-1.10
2018-12-13T04:23:30.927Z,-1.10
2018-12-13T04:25:59.392Z,-1.10
2018-12-13T04:28:34.248Z,-1.10
2018-12-13T04:31:02.611Z,-1.20
2018-12-13T04:33:30.930Z,-1.20
2018-12-13T04:35:59.389Z,-1.20
2018-12-13T04:38:27.743Z,-1.20
2018-12-13T04:40:56.095Z,-1.20
2018-12-13T04:43:24.428Z,-1.20
2018-12-13T04:45:52.881Z,-1.20
2018-12-13T04:48:21.210Z,-1.20
2018-12-13T04:50:49.575Z,-1.30
2018-12-13T04:53:17.896Z,-1.20
2018-12-13T04:55:46.249Z,-1.30
2018-12-13T04:58:14.571Z,-1.30
2018-12-13T05:00:42.922Z,-1.30
2018-12-13T05:03:11.259Z,-1.30
2018-12-13T05:05:39.615Z,-1.30
2018-12-13T05:08:07.968Z,-1.30
2018-12-13T05:10:51.545Z,-1.30
2018-12-13T05:13:20.193Z,-1.30
2018-12-13T05:15:48.642Z,-1.20
2018-12-13T05:18:17.071Z,-1.30
2018-12-13T05:20:45.431Z,-1.20
2018-12-13T05:23:13.774Z,-1.20
2018-12-13T05:25:42.118Z,-1.20
2018-12-13T05:28:10.426Z,-1.20
2018-12-13T05:30:38.770Z,-1.20
2018-12-13T05:33:07.181Z,-1.20
2018-12-13T05:35:35.602Z,-1.20
2018-12-13T05:38:03.916Z,-1.20
2018-12-13T05:40:32.263Z,-1.10
2018-12-13T05:43:00.573Z,-1.10
2018-12-13T05:45:28.958Z,-1.10
2018-12-13T05:47:57.286Z,-1.10
2018-12-13T05:50:25.675Z,-1.10
2018-12-13T05:52:53.990Z,-1.10
2018-12-13T05:55:22.358Z,-1.10
2018-12-13T05:57:50.681Z,-1.10
2018-12-13T06:00:19.029Z,-1.10
2018-12-13T06:02:47.365Z,-1.10
2018-12-13T06:05:15.709Z,-1.10
2018-12-13T06:07:44.037Z,-1.10
2018-12-13T06:10:12.417Z,-1.10
2018-12-13T06:12:40.748Z,-1.10
2018-12-13T06:15:09.225Z,-1.10
2018-12-13T06:17:37.552Z,-1.10
2018-12-13T06:20:06.115Z,-1.10
2018-12-13T06:22:34.441Z,-1.10
2018-12-13T06:25:03.001Z,-1.10
2018-12-13T06:27:31.433Z,-1.00
2018-12-13T06:29:59.756Z,-0.80
2018-12-13T06:32:28.110Z,-0.60
2018-12-13T06:34:56.450Z,-0.50
2018-12-13T06:37:24.807Z,-0.50
2018-12-13T06:39:53.129Z,-0.60
2018-12-13T06:42:21.482Z,-0.70
2018-12-13T06:44:49.794Z,-0.80
2018-12-13T06:47:18.146Z,-0.80
2018-12-13T06:49:46.474Z,-0.90
2018-12-13T06:52:14.825Z,-0.90
2018-12-13T06:54:43.251Z,-0.90
2018-12-13T06:57:11.587Z,-1.00
2018-12-13T06:59:39.900Z,-1.00
2018-12-13T07:02:08.274Z,-1.00
2018-12-13T07:04:36.618Z,-1.00
2018-12-13T07:07:04.981Z,-1.00
2018-12-13T07:09:33.311Z,-1.00
2018-12-13T07:12:01.676Z,-1.10
2018-12-13T07:14:30.470Z,-1.10
2018-12-13T07:16:58.926Z,-1.10
2018-12-13T07:19:27.256Z,-1.10
2018-12-13T07:21:55.618Z,-1.10
2018-12-13T07:24:23.949Z,-1.00
2018-12-13T07:26:52.334Z,-1.00
2018-12-13T07:29:20.738Z,-1.00
2018-12-13T07:31:49.155Z,-1.00
2018-12-13T07:34:17.693Z,-1.00
2018-12-13T07:36:46.057Z,-1.00
2018-12-13T07:39:14.370Z,-1.00
2018-12-13T07:41:42.726Z,-1.00
2018-12-13T07:44:11.045Z,-1.10
2018-12-13T07:46:39.391Z,-1.00
2018-12-13T07:49:07.718Z,-0.90
2018-12-13T07:51:36.330Z,-0.80
2018-12-13T07:54:04.745Z,-0.80
2018-12-13T07:56:33.111Z,-0.90
2018-12-13T07:59:01.444Z,-0.90
2018-12-13T08:01:29.802Z,-0.90
2018-12-13T08:03:58.118Z,-0.90
2018-12-13T08:06:26.927Z,-0.90
2018-12-13T08:08:55.252Z,-0.90
2018-12-13T08:11:23.597Z,-0.90
2018-12-13T08:13:51.943Z,-0.90
2018-12-13T08:16:20.298Z,-0.90
2018-12-13T08:18:48.618Z,-0.90
2018-12-13T08:21:16.967Z,-0.90
2018-12-13T08:23:45.294Z,-0.90
2018-12-13T08:26:13.626Z,-0.90
2018-12-13T08:28:41.978Z,-0.90
2018-12-13T08:31:10.297Z,-0.90
2018-12-13T08:33:38.651Z,-0.90
2018-12-13T08:36:06.961Z,-0.90
2018-12-13T08:38:35.314Z,-0.90
2018-12-13T08:41:03.738Z,-0.90
2018-12-13T08:43:32.198Z,-0.90
2018-12-13T08:46:00.521Z,-0.90
2018-12-13T08:48:28.910Z,-0.80
2018-12-13T08:50:57.241Z,-0.80
2018-12-13T08:53:25.742Z,-0.80
2018-12-13T08:55:54.070Z,-0.80
2018-12-13T08:58:22.411Z,-0.80
2018-12-13T09:00:50.734Z,-0.80
2018-12-13T09:03:19.170Z,-0.80
2018-12-13T09:05:47.494Z,-0.80
2018-12-13T09:08:15.849Z,-0.80
2018-12-13T09:10:44.186Z,-0.80
2018-12-13T09:13:12.543Z,-0.80
2018-12-13T09:15:40.994Z,-0.80
2018-12-13T09:18:09.350Z,-0.80
2018-12-13T09:20:37.683Z,-0.90
2018-12-13T09:23:06.235Z,-0.90
2018-12-13T09:25:34.557Z,-0.80
2018-12-13T09:28:02.915Z,-0.80
2018-12-13T09:30:31.226Z,-0.80
2018-12-13T09:32:59.586Z,-0.70
2018-12-13T09:35:28.022Z,-0.80
2018-12-13T09:37:56.388Z,-0.70
2018-12-13T09:40:24.723Z,-0.80
2018-12-13T09:42:53.096Z,-0.80
2018-12-13T09:45:21.475Z,-0.80
2018-12-13T09:47:49.832Z,-0.70
2018-12-13T09:50:18.146Z,-0.70
2018-12-13T09:52:46.503Z,-0.70
2018-12-13T09:55:14.819Z,-0.70
2018-12-13T09:57:43.172Z,-0.70
2018-12-13T10:00:11.641Z,-0.70
2018-12-13T10:02:39.993Z,-0.70
2018-12-13T10:05:08.638Z,-0.70
2018-12-13T10:07:36.994Z,-0.70
2018-12-13T10:10:05.663Z,-0.70
2018-12-13T10:12:34.017Z,-0.70
2018-12-13T10:15:02.383Z,-0.70
2018-12-13T10:17:30.712Z,-0.70
2018-12-13T10:19:59.055Z,-0.70
2018-12-13T10:22:28.615Z,-0.70
2018-12-13T10:24:57.254Z,-0.70
2018-12-13T10:27:25.572Z,-0.70
2018-12-13T10:29:54.029Z,-0.70
2018-12-13T10:32:22.351Z,-0.70
2018-12-13T10:34:50.711Z,-0.70
2018-12-13T10:37:19.047Z,-0.70
2018-12-13T10:39:47.497Z,-0.70
2018-12-13T10:42:15.809Z,-0.70
2018-12-13T10:44:44.191Z,-0.70
2018-12-13T10:47:12.510Z,-0.70
2018-12-13T10:49:40.863Z,-0.80
2018-12-13T10:52:09.190Z,-0.70
2018-12-13T10:54:37.560Z,-0.70
2018-12-13T10:57:05.978Z,-0.70
2018-12-13T10:59:34.945Z,-0.70
2018-12-13T11:02:05.316Z,-0.70
2018-12-13T11:04:33.673Z,-0.70
2018-12-13T11:07:02.107Z,-0.70
2018-12-13T11:09:30.472Z,-0.70
2018-12-13T11:11:58.799Z,-0.70
2018-12-13T11:14:27.153Z,-0.70
2018-12-13T11:16:55.470Z,-0.70
2018-12-13T11:19:23.823Z,-0.70
2018-12-13T11:21:52.137Z,-0.80
2018-12-13T11:24:20.501Z,-0.80
2018-12-13T11:26:48.823Z,-0.80
2018-12-13T11:29:28.829Z,-0.80
2018-12-13T11:31:57.145Z,-0.80
2018-12-13T11:34:25.525Z,-0.80
2018-12-13T11:36:53.942Z,-0.80
2018-12-13T11:39:22.380Z,-0.80
2018-12-13T11:41:50.678Z,-0.80
2018-12-13T11:44:19.073Z,-0.80
2018-12-13T11:46:47.435Z,-0.80
2018-12-13T11:49:17.141Z,-0.80
2018-12-13T11:51:45.696Z,-0.90
2018-12-13T11:54:27.891Z,-0.80
2018-12-13T11:56:56.213Z,-0.90
2018-12-13T11:59:24.558Z,-0.90
2018-12-13T12:01:52.883Z,-0.90
2018-12-13T12:04:21.226Z,-0.90
2018-12-13T12:06:49.551Z,-0.80
2018-12-13T12:09:17.914Z,-0.90
2018-12-13T12:11:46.224Z,-0.80
2018-12-13T12:14:14.573Z,-0.90
2018-12-13T12:16:42.946Z,-0.90
2018-12-13T12:19:11.314Z,-0.90
2018-12-13T12:21:39.786Z,-1.00
2018-12-13T12:24:08.145Z,-1.00
2018-12-13T12:26:36.488Z,-1.00
2018-12-13T12:29:04.852Z,-1.00
2018-12-13T12:31:33.173Z,-1.00
2018-12-13T12:34:01.518Z,-1.00
2018-12-13T12:36:29.838Z,-1.00
2018-12-13T12:38:58.220Z,-1.00
2018-12-13T12:41:26.562Z,-1.10
2018-12-13T12:43:54.942Z,-1.10
2018-12-13T12:46:23.377Z,-1.10
2018-12-13T12:48:51.729Z,-1.10
2018-12-13T12:51:20.062Z,-1.10
2018-12-13T12:53:48.450Z,-1.10
2018-12-13T12:56:16.867Z,-1.10
2018-12-13T12:58:45.213Z,-1.10
2018-12-13T13:01:13.550Z,-1.10
2018-12-13T13:03:41.894Z,-1.10
2018-12-13T13:06:10.218Z,-1.10
2018-12-13T13:08:38.631Z,-1.10
2018-12-13T13:11:06.973Z,-1.10
2018-12-13T13:13:35.294Z,-1.10
2018-12-13T13:16:03.671Z,-1.10
2018-12-13T13:18:31.995Z,-1.10
2018-12-13T13:21:00.359Z,-1.10
2018-12-13T13:23:28.712Z,-1.10
2018-12-13T13:25:57.116Z,-1.10
2018-12-13T13:28:25.430Z,-1.10
2018-12-13T13:30:53.794Z,-1.10
2018-12-13T13:33:22.128Z,-1.10
2018-12-13T13:35:50.482Z,-1.10
2018-12-13T13:38:18.814Z,-1.10
2018-12-13T13:40:47.265Z,-1.10
2018-12-13T13:43:15.598Z,-1.10
2018-12-13T13:45:44.046Z,-1.10
2018-12-13T13:48:12.378Z,-1.00
2018-12-13T13:50:40.838Z,-1.00
2018-12-13T13:53:09.158Z,-1.00
2018-12-13T13:55:37.525Z,-1.00
2018-12-13T13:58:05.842Z,-1.10
2018-12-13T14:00:34.207Z,-1.10
2018-12-13T14:03:02.538Z,-1.10
2018-12-13T14:05:30.923Z,-1.10
2018-12-13T14:07:59.247Z,-1.10
2018-12-13T14:10:27.724Z,-1.10
2018-12-13T14:12:56.060Z,-1.20
2018-12-13T14:15:24.421Z,-1.20
2018-12-13T14:17:52.773Z,-1.20
2018-12-13T14:20:21.133Z,-1.20
2018-12-13T14:22:49.811Z,-1.20
2018-12-13T14:25:18.165Z,-1.20
2018-12-13T14:27:46.486Z,-1.20
2018-12-13T14:30:14.851Z,-1.20
2018-12-13T14:32:43.166Z,-1.20
2018-12-13T14:35:11.522Z,-1.20
2018-12-13T14:37:39.869Z,-1.20
2018-12-13T14:40:08.322Z,-1.20
2018-12-13T14:42:36.643Z,-1.20
2018-12-13T14:45:05.686Z,-1.20
2018-12-13T14:47:34.518Z,-1.20
2018-12-13T14:50:02.869Z,-1.30
2018-12-13T14:52:31.225Z,-1.10
2018-12-13T14:54:59.570Z,-1.00
2018-12-13T14:57:27.951Z,-1.00
2018-12-13T14:59:56.374Z,-1.10
2018-12-13T15:02:24.734Z,-1.10
2018-12-13T15:04:53.503Z,-1.10
2018-12-13T15:07:21.856Z,-1.10
2018-12-13T15:09:51.077Z,-1.10
2018-12-13T15:12:19.774Z,-1.00
2018-12-13T15:14:48.133Z,-1.00
2018-12-13T15:17:16.506Z,-1.00
2018-12-13T15:19:44.859Z,-1.00
2018-12-13T15:22:13.202Z,-1.10
2018-12-13T15:24:41.542Z,-1.10
2018-12-13T15:27:09.898Z,-1.10
2018-12-13T15:29:38.250Z,-1.10
2018-12-13T15:32:06.646Z,-1.10
2018-12-13T15:34:35.002Z,-1.10
2018-12-13T15:37:03.358Z,-1.20
2018-12-13T15:39:31.701Z,-1.20
2018-12-13T15:42:00.097Z,-1.20
2018-12-13T15:44:28.430Z,-1.20
2018-12-13T15:46:56.785Z,-1.20
2018-12-13T15:49:25.425Z,-1.20
2018-12-13T15:51:53.793Z,-1.20
2018-12-13T15:54:22.143Z,-1.20
2018-12-13T15:56:50.549Z,-1.20
2018-12-13T15:59:18.881Z,-1.20
2018-12-13T16:01:47.257Z,-1.20
2018-12-13T16:04:15.578Z,-1.20
2018-12-13T16:06:44.007Z,-1.20
2018-12-13T16:09:12.402Z,-1.20
2018-12-13T16:11:40.873Z,-1.10
2018-12-13T16:14:09.260Z,-1.10
2018-12-13T16:16:37.689Z,-1.00
2018-12-13T16:19:06.150Z,-1.00
2018-12-13T16:21:34.525Z,-1.00
2018-12-13T16:24:02.850Z,-1.10
2018-12-13T16:26:31.338Z,-1.10
2018-12-13T16:28:59.668Z,-1.10
2018-12-13T16:31:28.043Z,-1.10
2018-12-13T16:33:56.641Z,-1.10
2018-12-13T16:39:10.030Z,-1.10
2018-12-13T16:41:38.485Z,-1.10
2018-12-13T16:44:06.934Z,-1.00
2018-12-13T16:46:35.411Z,-1.00
2018-12-13T16:49:03.752Z,-1.00
2018-12-13T16:51:32.159Z,-1.00
2018-12-13T16:54:00.502Z,-0.90
2018-12-13T16:56:28.861Z,-0.90
2018-12-13T16:58:57.197Z,-0.90
2018-12-13T17:01:25.582Z,-0.90
2018-12-13T17:03:53.919Z,-1.00
2018-12-13T17:06:22.601Z,-0.90
2018-12-13T17:08:50.917Z,-1.00
2018-12-13T17:11:19.413Z,-1.00
2018-12-13T17:13:47.798Z,-1.00
2018-12-13T17:16:16.202Z,-1.00
2018-12-13T17:18:44.555Z,-1.00
2018-12-13T17:21:12.950Z,-1.00
2018-12-13T17:23:41.282Z,-1.00
2018-12-13T17:26:09.662Z,-1.00
2018-12-13T17:28:38.037Z,-1.00
2018-12-13T17:31:06.426Z,-1.00
2018-12-13T17:33:34.850Z,-1.00
2018-12-13T17:36:03.229Z,-1.00
2018-12-13T17:38:31.570Z,-1.00
2018-12-13T17:40:59.958Z,-1.00
2018-12-13T17:43:28.365Z,-1.00
2018-12-13T17:45:56.687Z,-1.00
2018-12-13T17:48:25.082Z,-1.00
2018-12-13T17:50:53.541Z,-1.00
2018-12-13T17:53:21.936Z,-1.00
2018-12-13T17:55:50.269Z,-1.00
2018-12-13T17:58:18.635Z,-1.00
2018-12-13T18:00:46.953Z,-1.00
2018-12-13T18:03:15.341Z,-1.00
2018-12-13T18:05:43.746Z,-1.00
2018-12-13T18:08:12.175Z,-1.00
2018-12-13T18:10:40.578Z,-1.00
2018-12-13T18:13:09.082Z,-1.00
2018-12-13T18:15:37.487Z,-1.00
2018-12-13T18:18:05.889Z,-1.00
2018-12-13T18:20:34.222Z,-1.00
2018-12-13T18:23:02.629Z,-1.00
2018-12-13T18:25:30.961Z,-1.00
2018-12-13T18:27:59.369Z,-1.00
2018-12-13T18:30:27.705Z,-1.00
2018-12-13T18:32:56.110Z,-0.90
2018-12-13T18:35:24.552Z,-0.90
2018-12-13T18:37:52.960Z,-0.90
2018-12-13T18:40:21.392Z,-0.90
2018-12-13T18:42:49.802Z,-1.00
2018-12-13T18:45:20.129Z,-0.90
2018-12-13T18:47:48.660Z,-0.90
2018-12-13T18:50:17.014Z,-1.00
2018-12-13T18:52:45.433Z,-0.90
2018-12-13T18:55:13.750Z,-0.90
2018-12-13T18:57:42.159Z,-0.90
2018-12-13T19:00:10.474Z,-0.90
2018-12-13T19:02:38.887Z,-0.90
2018-12-13T19:05:07.322Z,-0.80
2018-12-13T19:07:35.790Z,-0.80
2018-12-13T19:10:04.786Z,-0.80
2018-12-13T19:12:33.192Z,-0.80
2018-12-13T19:15:01.515Z,-0.80
2018-12-13T19:17:29.929Z,-0.80
2018-12-13T19:19:58.263Z,-0.80
2018-12-13T19:25:02.551Z,-0.80
2018-12-13T19:27:30.959Z,-0.90
2018-12-13T19:29:59.319Z,-0.90
2018-12-13T19:32:27.643Z,-0.90
2018-12-13T19:35:00.255Z,-0.90
2018-12-13T19:37:26.415Z,-0.90
2018-12-13T19:39:54.849Z,-0.80
2018-12-13T19:42:23.203Z,-0.90
2018-12-13T19:44:51.554Z,-0.90
2018-12-13T19:47:19.938Z,-0.90
2018-12-13T19:49:48.263Z,-0.90
2018-12-13T19:52:16.626Z,-0.80
2018-12-13T19:54:44.991Z,-0.80
2018-12-13T19:57:13.531Z,-0.90
2018-12-13T19:59:42.129Z,-0.80
2018-12-13T20:02:10.504Z,-0.80
2018-12-13T20:04:38.974Z,-0.80
2018-12-13T20:07:07.441Z,-0.80
2018-12-13T20:09:35.882Z,-0.80
2018-12-13T20:12:04.241Z,-0.80
2018-12-13T20:14:32.569Z,-0.80
2018-12-13T20:17:00.946Z,-0.90
2018-12-13T20:19:29.280Z,-0.80
2018-12-13T20:21:57.665Z,-0.80
2018-12-13T20:24:26.039Z,-0.80
2018-12-13T20:26:54.405Z,-0.90
2018-12-13T20:29:23.186Z,-0.80
2018-12-13T20:34:26.315Z,-0.90
2018-12-13T20:36:54.672Z,-0.90
2018-12-13T20:39:23.049Z,-0.90
2018-12-13T20:41:51.387Z,-0.90
2018-12-13T20:44:19.749Z,-0.90
2018-12-13T20:46:48.083Z,-0.90
2018-12-13T20:49:16.412Z,-0.90
2018-12-13T20:51:44.775Z,-0.90
2018-12-13T20:54:13.092Z,-0.90
2018-12-13T20:56:41.462Z,-0.90
2018-12-13T20:59:09.898Z,-0.90
2018-12-13T21:01:38.271Z,-0.90
2018-12-13T21:04:06.639Z,-0.80
2018-12-13T21:06:35.005Z,-0.90
2018-12-13T21:09:04.758Z,-0.90
2018-12-13T21:11:33.133Z,-0.80
2018-12-13T21:14:01.469Z,-0.90
2018-12-13T21:16:29.843Z,-0.90
2018-12-13T21:18:58.206Z,-0.90
2018-12-13T21:21:26.682Z,-0.90
2018-12-13T21:23:55.064Z,-0.80
2018-12-13T21:26:23.391Z,-0.80
2018-12-13T21:28:51.773Z,-0.80
2018-12-13T21:31:20.133Z,-0.80
2018-12-13T21:33:48.497Z,-0.80
2018-12-13T21:36:16.853Z,-0.90
2018-12-13T21:38:45.186Z,-0.80
2018-12-13T21:41:13.808Z,-0.80
2018-12-13T21:43:42.336Z,-0.80
2018-12-13T21:46:10.658Z,-0.80
2018-12-13T21:48:39.031Z,-0.80
2018-12-13T21:51:07.351Z,-0.80
2018-12-13T21:53:35.709Z,-0.80
2018-12-13T21:56:04.026Z,-0.80
2018-12-13T21:58:32.378Z,-0.80
2018-12-13T22:01:00.910Z,-0.80
2018-12-13T22:03:29.282Z,-0.80
2018-12-13T22:05:57.727Z,-0.80
2018-12-13T22:08:26.090Z,-0.80
2018-12-13T22:10:54.434Z,-0.80
2018-12-13T22:13:25.790Z,-0.80
2018-12-13T22:15:54.127Z,-0.80
2018-12-13T22:18:22.462Z,-0.80
2018-12-13T22:20:50.826Z,-0.80
2018-12-13T22:23:19.175Z,-0.90
2018-12-13T22:25:47.538Z,-0.90
2018-12-13T22:28:15.853Z,-0.90
2018-12-13T22:30:44.229Z,-0.90
2018-12-13T22:33:12.584Z,-0.90
2018-12-13T22:35:40.959Z,-0.90
2018-12-13T22:38:09.324Z,-0.90
2018-12-13T22:40:40.334Z,-0.90
2018-12-13T22:43:08.743Z,-0.90
2018-12-13T22:45:37.098Z,-0.90
2018-12-13T22:48:05.427Z,-0.90
2018-12-13T22:50:33.794Z,-0.90
2018-12-13T22:53:02.131Z,-0.90
2018-12-13T22:55:30.494Z,-0.90
2018-12-13T22:57:58.810Z,-1.00
2018-12-13T23:00:27.354Z,-1.00
2018-12-13T23:02:55.685Z,-1.00
2018-12-13T23:05:24.064Z,-1.00
2018-12-13T23:07:52.570Z,-1.00
2018-12-13T23:10:20.892Z,-0.90
2018-12-13T23:12:49.251Z,-0.90
2018-12-13T23:15:17.584Z,-0.90
2018-12-13T23:17:45.930Z,-1.00
2018-12-13T23:20:14.314Z,-1.00
2018-12-13T23:22:42.635Z,-1.00
2018-12-13T23:25:10.949Z,-0.90
2018-12-13T23:27:39.327Z,-1.00
2018-12-13T23:30:07.986Z,-1.00
2018-12-13T23:32:36.298Z,-0.90
2018-12-13T23:35:05.030Z,-1.00
2018-12-13T23:37:33.351Z,-0.90
2018-12-13T23:40:01.711Z,-1.00
2018-12-13T23:42:30.038Z,-1.00
2018-12-13T23:44:58.396Z,-1.00
2018-12-13T23:47:26.754Z,-1.00
2018-12-13T23:49:55.077Z,-1.00
2018-12-13T23:52:23.445Z,-1.00
2018-12-13T23:54:51.755Z,-1.00
2018-12-13T23:57:20.078Z,-1.00
2018-12-13T23:59:48.433Z,-1.00
